Time;durP1;ratioP1;P1;durP2;ratioP2;P2;SDS_P1;SDS_P2;PMS_P1;PMS_P2;Temp;Humidity;BMP_temperature;BMP_pressure;BME280_temperature;BME280_humidity;BME280_pressure;Samples;Min_cycle;Max_cycle;Signal;HPM_P1;HPM_P2
2023/10/30 00:00:26;;;;;;;;;;;10.10;99.90;;;;;;5042915;28;19927;-92
2023/10/30 00:02:52;;;;;;;;;;;10.10;99.90;;;;;;5033065;28;19969;-88
2023/10/30 00:05:17;;;;;;;;;;;10.10;99.90;;;;;;5058724;28;20554;-90
2023/10/30 00:07:43;;;;;;;;;;;10.10;99.90;;;;;;5064589;28;20011;-91
2023/10/30 00:10:09;;;;;;;;;;;10.00;99.90;;;;;;5043275;28;20033;-92
2023/10/30 00:12:35;;;;;;;;;;;10.10;99.90;;;;;;5042005;28;20668;-88
2023/10/30 00:15:03;;;;;;;;;;;10.80;99.90;;;;;;5068447;28;20375;-94
2023/10/30 00:17:30;;;;;;;;;;;;;;;;;;5062063;28;19969;-91
2023/10/30 00:19:55;;;;;;;;;;;9.90;99.90;;;;;;5063564;28;20524;-91
2023/10/30 00:22:21;;;;;;;;;;;10.00;99.90;;;;;;5056100;28;19960;-88
2023/10/30 00:24:47;;;;;;;;;;;;;;;;;;5044034;28;19920;-89
2023/10/30 00:27:13;;;;;;;;;;;9.90;99.90;;;;;;5071228;28;20303;-92
2023/10/30 00:29:40;;;;;;;;;;;9.90;99.90;;;;;;5058555;28;19924;-94
2023/10/30 00:32:06;;;;;;;;;;;;;;;;;;5076864;28;20251;-89
2023/10/30 00:34:32;;;;;;;;;;;10.00;99.90;;;;;;5058075;28;19920;-88
2023/10/30 00:36:57;;;;;;;;;;;10.10;99.90;;;;;;5058733;28;20367;-87
2023/10/30 00:39:23;;;;;;;;;;;10.00;99.90;;;;;;5066234;28;20332;-90
2023/10/30 00:41:49;;;;;;;;;;;10.10;99.90;;;;;;5047532;28;19928;-93
2023/10/30 00:44:14;;;;;;;;;;;9.90;99.90;;;;;;5050736;28;20298;-92
2023/10/30 00:46:40;;;;;;;;;;;9.90;99.90;;;;;;5041847;28;20264;-88
2023/10/30 00:49:05;;;;;;;;;;;9.70;99.90;;;;;;5038112;28;20551;-91
2023/10/30 00:51:31;;;;;;;;;;;9.70;99.90;;;;;;5040259;28;19924;-90
2023/10/30 00:53:57;;;;;;;;;;;9.70;99.90;;;;;;5074971;28;20382;-91
2023/10/30 00:56:22;;;;;;;;;;;9.70;99.90;;;;;;5053932;28;20069;-89
2023/10/30 00:58:48;;;;;;;;;;;9.60;99.90;;;;;;5059962;28;19920;-94
2023/10/30 01:01:16;;;;;;;;;;;9.70;99.90;;;;;;5062872;28;19927;-86
2023/10/30 01:03:42;;;;;;;;;;;9.80;99.90;;;;;;5072567;28;19920;-89
2023/10/30 01:06:08;;;;;;;;;;;9.80;99.90;;;;;;5065936;28;19927;-89
2023/10/30 01:08:34;;;;;;;;;;;9.70;99.90;;;;;;5064494;28;19920;-90
2023/10/30 01:11:00;;;;;;;;;;;;;;;;;;5048246;28;19928;-90
2023/10/30 01:13:25;;;;;;;;;;;9.60;99.90;;;;;;5070879;28;20452;-88
2023/10/30 01:15:55;;;;;;;;;;;9.50;99.90;;;;;;5062350;28;19920;-88
2023/10/30 01:18:20;;;;;;;;;;;9.50;99.90;;;;;;5061544;28;19928;-91
2023/10/30 01:20:47;;;;;;;;;;;9.60;99.90;;;;;;5067812;28;20402;-90
2023/10/30 01:23:13;;;;;;;;;;;9.60;99.90;;;;;;5073562;28;20645;-92
2023/10/30 01:25:40;;;;;;;;;;;9.60;99.90;;;;;;5077341;28;19920;-88
2023/10/30 01:28:05;;;;;;;;;;;9.40;99.90;;;;;;5061369;28;19967;-91
2023/10/30 01:30:31;;;;;;;;;;;;;;;;;;5071783;28;19924;-89
2023/10/30 01:32:57;;;;;;;;;;;9.20;99.90;;;;;;5069904;28;19919;-91
2023/10/30 01:35:22;;;;;;;;;;;9.40;99.90;;;;;;5051369;28;19950;-95
2023/10/30 01:37:48;;;;;;;;;;;9.50;99.90;;;;;;5052075;28;19926;-91
2023/10/30 01:40:14;;;;;;;;;;;9.50;99.90;;;;;;5060634;28;20018;-89
2023/10/30 01:42:40;;;;;;;;;;;;;;;;;;5061652;28;19963;-90
2023/10/30 01:45:09;;;;;;;;;;;9.50;99.90;;;;;;5079154;28;19928;-89
2023/10/30 01:47:35;;;;;;;;;;;;;;;;;;5054336;28;20511;-90
2023/10/30 01:50:04;;;;;;;;;;;;;;;;;;5063790;28;19945;-87
2023/10/30 01:52:30;;;;;;;;;;;9.50;99.90;;;;;;5062194;28;19921;-87
2023/10/30 01:54:56;;;;;;;;;;;9.50;99.90;;;;;;5063211;28;19969;-92
2023/10/30 01:57:22;;;;;;;;;;;9.50;99.90;;;;;;5052043;28;19920;-88
2023/10/30 01:59:49;;;;;;;;;;;10.20;99.90;;;;;;5052982;28;19920;-90
2023/10/30 02:02:15;;;;;;;;;;;9.40;99.90;;;;;;5063934;28;19974;-93
2023/10/30 02:04:41;;;;;;;;;;;9.30;99.90;;;;;;5051273;28;19927;-92
2023/10/30 02:07:07;;;;;;;;;;;9.40;99.90;;;;;;5066436;28;19924;-95
2023/10/30 02:09:33;;;;;;;;;;;9.30;99.90;;;;;;5044797;28;20370;-93
2023/10/30 02:11:59;;;;;;;;;;;9.40;99.90;;;;;;5060732;28;19932;-86
2023/10/30 02:14:24;;;;;;;;;;;;;;;;;;5044384;28;19957;-93
2023/10/30 02:16:51;;;;;;;;;;;;;;;;;;5059550;28;19931;-93
2023/10/30 02:19:17;;;;;;;;;;;;;;;;;;5056693;28;19928;-89
2023/10/30 02:21:42;;;;;;;;;;;9.30;99.90;;;;;;5064809;28;19920;-91
2023/10/30 02:24:08;;;;;;;;;;;9.50;99.90;;;;;;5061214;28;19974;-92
2023/10/30 02:26:34;;;;;;;;;;;;;;;;;;5059160;28;19921;-89
2023/10/30 02:29:02;;;;;;;;;;;;;;;;;;5069318;28;19964;-90
2023/10/30 02:31:30;;;;;;;;;;;;;;;;;;5065759;28;19928;-91
2023/10/30 02:33:56;;;;;;;;;;;9.70;99.90;;;;;;5081495;28;19920;-90
2023/10/30 02:36:21;;;;;;;;;;;9.30;99.90;;;;;;5055272;28;19927;-88
2023/10/30 02:38:47;;;;;;;;;;;9.30;99.90;;;;;;5061285;28;20017;-90
2023/10/30 02:41:13;;;;;;;;;;;;;;;;;;5064381;28;19920;-87
2023/10/30 02:43:39;;;;;;;;;;;;;;;;;;5060159;28;20284;-87
2023/10/30 02:46:05;;;;;;;;;;;;;;;;;;5061419;28;20010;-87
2023/10/30 02:48:31;;;;;;;;;;;;;;;;;;5061510;28;20011;-90
2023/10/30 02:50:57;;;;;;;;;;;9.20;99.90;;;;;;5061936;28;20011;-91
2023/10/30 02:53:23;;;;;;;;;;;;;;;;;;5042013;28;19927;-94
2023/10/30 02:55:50;;;;;;;;;;;;;;;;;;5059809;28;19924;-89
2023/10/30 02:58:15;;;;;;;;;;;9.30;99.90;;;;;;5061457;28;20064;-86
2023/10/30 03:00:41;;;;;;;;;;;;;;;;;;5058302;28;19968;-93
2023/10/30 03:03:09;;;;;;;;;;;;;;;;;;5050222;28;20043;-93
2023/10/30 03:05:35;;;;;;;;;;;;;;;;;;5072546;28;19959;-92
2023/10/30 03:08:01;;;;;;;;;;;;;;;;;;5081664;28;19958;-89
2023/10/30 03:10:27;;;;;;;;;;;;;;;;;;5064682;28;19969;-93
2023/10/30 03:12:53;;;;;;;;;;;;;;;;;;5067984;28;19924;-87
2023/10/30 03:15:19;;;;;;;;;;;;;;;;;;5072162;28;20003;-89
2023/10/30 03:17:45;;;;;;;;;;;9.30;99.90;;;;;;5071715;28;19920;-87
2023/10/30 03:20:11;;;;;;;;;;;9.30;99.90;;;;;;5050811;28;19920;-92
2023/10/30 03:22:37;;;;;;;;;;;;;;;;;;5039879;28;19986;-91
2023/10/30 03:25:03;;;;;;;;;;;;;;;;;;5071293;28;19920;-91
2023/10/30 03:27:29;;;;;;;;;;;;;;;;;;5058808;28;19920;-87
2023/10/30 03:29:55;;;;;;;;;;;;;;;;;;5081184;28;20030;-90
2023/10/30 03:32:21;;;;;;;;;;;;;;;;;;5075893;28;19920;-86
2023/10/30 03:34:47;;;;;;;;;;;;;;;;;;5058808;28;19926;-88
2023/10/30 03:37:13;;;;;;;;;;;;;;;;;;5059747;28;19928;-84
2023/10/30 03:39:39;;;;;;;;;;;;;;;;;;5058906;28;20011;-88
2023/10/30 03:42:05;;;;;;;;;;;;;;;;;;5076638;28;19924;-92
2023/10/30 03:44:31;;;;;;;;;;;;;;;;;;5059194;28;19924;-89
2023/10/30 03:46:57;;;;;;;;;;;;;;;;;;5074673;28;19924;-86
2023/10/30 03:49:23;;;;;;;;;;;;;;;;;;5076860;28;19923;-89
2023/10/30 03:51:49;;;;;;;;;;;;;;;;;;5075587;28;20343;-87
2023/10/30 03:54:15;;;;;;;;;;;;;;;;;;5074709;28;19920;-88
2023/10/30 03:56:41;;;;;;;;;;;;;;;;;;5057729;28;19925;-87
2023/10/30 03:59:07;;;;;;;;;;;;;;;;;;5071537;28;19921;-86
2023/10/30 04:01:35;;;;;;;;;;;;;;;;;;5063478;28;20389;-86
2023/10/30 04:04:01;;;;;;;;;;;;;;;;;;5073738;28;20403;-90
2023/10/30 04:06:27;;;;;;;;;;;;;;;;;;5071824;28;19972;-90
2023/10/30 04:08:56;;;;;;;;;;;;;;;;;;5071426;28;19920;-85
2023/10/30 04:11:22;;;;;;;;;;;;;;;;;;5053549;28;19931;-93
2023/10/30 04:13:48;;;;;;;;;;;;;;;;;;5072260;28;19920;-88
2023/10/30 04:16:15;;;;;;;;;;;;;;;;;;5072956;28;19924;-95
2023/10/30 04:18:41;;;;;;;;;;;;;;;;;;5074577;28;20367;-90
2023/10/30 04:21:07;;;;;;;;;;;9.40;99.90;;;;;;5074090;28;19974;-94
2023/10/30 04:23:33;;;;;;;;;;;;;;;;;;5073346;28;19920;-92
2023/10/30 04:25:59;;;;;;;;;;;;;;;;;;5054926;28;19974;-84
2023/10/30 04:28:25;;;;;;;;;;;;;;;;;;5036212;28;20376;-94
2023/10/30 04:30:51;;;;;;;;;;;;;;;;;;5069117;28;20091;-96
2023/10/30 04:33:17;;;;;;;;;;;;;;;;;;5072913;28;19921;-86
2023/10/30 04:35:43;;;;;;;;;;;;;;;;;;5057415;28;19927;-95
2023/10/30 04:38:09;;;;;;;;;;;;;;;;;;5081215;28;20287;-84
2023/10/30 04:40:35;;;;;;;;;;;;;;;;;;5076991;28;19985;-87
2023/10/30 04:43:01;;;;;;;;;;;;;;;;;;5044129;28;20372;-90
2023/10/30 04:45:27;;;;;;;;;;;;;;;;;;5078669;28;19943;-90
2023/10/30 04:47:53;;;;;;;;;;;;;;;;;;5049876;28;20367;-88
2023/10/30 04:50:19;;;;;;;;;;;9.30;99.90;;;;;;5081277;28;19990;-92
2023/10/30 04:52:45;;;;;;;;;;;;;;;;;;5063686;28;19926;-88
2023/10/30 04:55:11;;;;;;;;;;;9.30;99.90;;;;;;5078191;28;19924;-93
2023/10/30 04:57:37;;;;;;;;;;;;;;;;;;5056775;28;19920;-92
2023/10/30 05:00:04;;;;;;;;;;;;;;;;;;5080951;28;19928;-92
2023/10/30 05:02:30;;;;;;;;;;;;;;;;;;5095449;28;19924;-88
2023/10/30 05:04:56;;;;;;;;;;;9.30;99.90;;;;;;5078347;28;20002;-89
2023/10/30 05:07:21;;;;;;;;;;;9.40;99.90;;;;;;5062449;28;20006;-90
2023/10/30 05:09:47;;;;;;;;;;;9.30;99.90;;;;;;5073834;28;19924;-96
2023/10/30 05:12:12;;;;;;;;;;;9.30;99.90;;;;;;5061886;28;19964;-93
2023/10/30 05:14:38;;;;;;;;;;;;;;;;;;5078628;28;19920;-91
2023/10/30 05:17:04;;;;;;;;;;;9.30;99.90;;;;;;5085925;28;19927;-91
2023/10/30 05:19:30;;;;;;;;;;;9.30;99.90;;;;;;5060772;28;20381;-91
2023/10/30 05:21:55;;;;;;;;;;;9.30;99.90;;;;;;5078683;28;19920;-91
2023/10/30 05:24:23;;;;;;;;;;;9.10;99.90;;;;;;5088993;28;19920;-93
2023/10/30 05:26:49;;;;;;;;;;;9.30;99.90;;;;;;5047953;28;20005;-94
2023/10/30 05:29:14;;;;;;;;;;;9.30;99.90;;;;;;5076854;28;19975;-90
2023/10/30 05:31:42;;;;;;;;;;;;;;;;;;5062119;28;19928;-91
2023/10/30 05:34:08;;;;;;;;;;;9.20;99.90;;;;;;5080409;28;19927;-89
2023/10/30 05:36:34;;;;;;;;;;;;;;;;;;5045515;28;20100;-94
2023/10/30 05:39:00;;;;;;;;;;;;;;;;;;5083713;28;20018;-94
2023/10/30 05:41:26;;;;;;;;;;;9.20;99.90;;;;;;5083381;28;19920;-94
2023/10/30 05:43:52;;;;;;;;;;;9.30;99.90;;;;;;5061382;28;20276;-92
2023/10/30 05:46:17;;;;;;;;;;;8.90;99.90;;;;;;5077657;28;19923;-87
2023/10/30 05:48:44;;;;;;;;;;;;;;;;;;5063684;28;19919;-91
2023/10/30 05:51:10;;;;;;;;;;;9.10;99.90;;;;;;5082091;28;19978;-92
2023/10/30 05:53:36;;;;;;;;;;;;;;;;;;5061687;28;19921;-93
2023/10/30 05:56:02;;;;;;;;;;;;;;;;;;5054038;28;19931;-91
2023/10/30 05:58:28;;;;;;;;;;;;;;;;;;5062661;28;19927;-93
2023/10/30 06:00:54;;;;;;;;;;;;;;;;;;5059063;28;19929;-92
2023/10/30 06:03:19;;;;;;;;;;;9.00;99.90;;;;;;5061914;28;19928;-94
2023/10/30 06:05:45;;;;;;;;;;;9.00;99.90;;;;;;5064540;28;19921;-89
2023/10/30 06:08:11;;;;;;;;;;;9.10;99.90;;;;;;5064113;28;19945;-91
2023/10/30 06:10:38;;;;;;;;;;;9.00;99.90;;;;;;5057688;28;20455;-90
2023/10/30 06:13:06;;;;;;;;;;;;;;;;;;5051653;28;19929;-92
2023/10/30 06:15:32;;;;;;;;;;;8.90;99.90;;;;;;5049358;28;20007;-92
2023/10/30 06:17:58;;;;;;;;;;;9.10;99.90;;;;;;5047730;28;19978;-89
2023/10/30 06:20:25;;;;;;;;;;;8.90;99.90;;;;;;5061103;28;19970;-92
2023/10/30 06:22:51;;;;;;;;;;;9.50;99.90;;;;;;5046336;28;19927;-91
2023/10/30 06:25:16;;;;;;;;;;;8.90;99.90;;;;;;5079177;28;19920;-92
2023/10/30 06:27:42;;;;;;;;;;;9.00;99.90;;;;;;5060467;28;19920;-89
2023/10/30 06:30:08;;;;;;;;;;;8.90;99.90;;;;;;5062281;28;20023;-92
2023/10/30 06:32:34;;;;;;;;;;;8.90;99.90;;;;;;5056674;28;19927;-88
2023/10/30 06:34:59;;;;;;;;;;;8.90;99.90;;;;;;5057103;28;20291;-89
2023/10/30 06:37:25;;;;;;;;;;;9.00;99.90;;;;;;5047954;28;19943;-94
2023/10/30 06:39:51;;;;;;;;;;;9.10;99.90;;;;;;5045620;28;19921;-90
2023/10/30 06:42:16;;;;;;;;;;;8.90;99.90;;;;;;5056581;28;19920;-88
2023/10/30 06:44:42;;;;;;;;;;;9.00;99.90;;;;;;5029354;28;19970;-91
2023/10/30 06:47:07;;;;;;;;;;;8.90;99.90;;;;;;5061265;28;19970;-87
2023/10/30 06:49:33;;;;;;;;;;;9.10;99.90;;;;;;5044782;28;19959;-86
2023/10/30 06:52:00;;;;;;;;;;;9.20;99.90;;;;;;5041453;28;19928;-87
2023/10/30 06:54:26;;;;;;;;;;;9.30;99.90;;;;;;5098204;28;19959;-83
2023/10/30 06:56:52;;;;;;;;;;;9.30;99.90;;;;;;5057311;28;19975;-91
2023/10/30 06:59:18;;;;;;;;;;;9.30;99.90;;;;;;5061912;28;19924;-91
2023/10/30 07:01:45;;;;;;;;;;;9.40;99.90;;;;;;5042344;28;19973;-82
2023/10/30 07:04:15;;;;;;;;;;;9.60;99.90;;;;;;5058248;28;19924;-87
2023/10/30 07:06:42;;;;;;;;;;;9.60;99.90;;;;;;5064973;28;20393;-88
2023/10/30 07:09:08;;;;;;;;;;;9.70;99.90;;;;;;5059405;28;19924;-83
2023/10/30 07:11:37;;;;;;;;;;;9.70;99.90;;;;;;5072470;28;19998;-89
2023/10/30 07:14:03;;;;;;;;;;;9.80;99.90;;;;;;5054263;28;19920;-89
2023/10/30 07:16:29;;;;;;;;;;;9.80;99.90;;;;;;5043784;28;20339;-88
2023/10/30 07:18:58;;;;;;;;;;;10.20;99.90;;;;;;5073338;28;19970;-89
2023/10/30 07:21:24;;;;;;;;;;;9.90;99.90;;;;;;5060130;28;19959;-85
2023/10/30 07:23:50;;;;;;;;;;;9.90;99.90;;;;;;5041240;28;19974;-88
2023/10/30 07:26:17;;;;;;;;;;;10.00;99.90;;;;;;5050415;28;19921;-85
2023/10/30 07:28:43;;;;;;;;;;;10.00;99.90;;;;;;5088899;28;19989;-88
2023/10/30 07:31:08;;;;;;;;;;;10.20;99.90;;;;;;5059513;28;19977;-83
2023/10/30 07:33:34;;;;;;;;;;;10.20;99.90;;;;;;5062422;28;20341;-89
2023/10/30 07:36:01;;;;;;;;;;;10.30;99.90;;;;;;5058860;28;19930;-85
2023/10/30 07:38:27;;;;;;;;;;;10.30;99.90;;;;;;5050638;28;20360;-87
2023/10/30 07:40:53;;;;;;;;;;;10.60;99.90;;;;;;5058959;28;19920;-87
2023/10/30 07:43:19;;;;;;;;;;;10.50;99.90;;;;;;5066846;28;20414;-87
2023/10/30 07:45:44;;;;;;;;;;;10.60;99.90;;;;;;5074799;28;20523;-91
2023/10/30 07:48:10;;;;;;;;;;;10.90;99.90;;;;;;5074280;28;20537;-86
2023/10/30 07:50:36;;;;;;;;;;;10.70;99.90;;;;;;5041711;28;20595;-84
2023/10/30 07:53:02;;;;;;;;;;;10.80;99.90;;;;;;5039018;28;19928;-90
2023/10/30 07:55:27;;;;;;;;;;;10.90;99.90;;;;;;5041368;28;19990;-87
2023/10/30 07:57:53;;;;;;;;;;;11.20;99.90;;;;;;5057628;28;19956;-92
2023/10/30 08:00:19;;;;;;;;;;;11.00;99.90;;;;;;5058072;28;19923;-94
2023/10/30 08:02:46;;;;;;;;;;;11.10;99.90;;;;;;5052707;28;19920;-85
2023/10/30 08:05:15;;;;;;;;;;;11.20;99.90;;;;;;5060815;28;19920;-92
2023/10/30 08:07:46;;;;;;;;;;;11.30;99.90;;;;;;5066627;28;19923;-88
2023/10/30 08:10:12;;;;;;;;;;;11.20;99.90;;;;;;5053553;28;19925;-85
2023/10/30 08:12:38;;;;;;;;;;;11.40;99.90;;;;;;5043349;28;19943;-86
2023/10/30 08:15:04;;;;;;;;;;;11.60;99.90;;;;;;5041823;28;19942;-88
2023/10/30 08:17:29;;;;;;;;;;;11.60;99.90;;;;;;5057168;28;19928;-87
2023/10/30 08:19:55;;;;;;;;;;;11.70;99.90;;;;;;5057697;28;20270;-86
2023/10/30 08:22:21;;;;;;;;;;;11.60;99.90;;;;;;5060112;28;19965;-90
2023/10/30 08:24:47;;;;;;;;;;;12.10;99.90;;;;;;5082171;28;19942;-86
2023/10/30 08:27:12;;;;;;;;;;;12.00;99.90;;;;;;5075210;28;19924;-88
2023/10/30 08:29:38;;;;;;;;;;;11.70;99.90;;;;;;5074689;28;19970;-92
2023/10/30 08:32:04;;;;;;;;;;;11.90;99.90;;;;;;5035276;28;20085;-88
2023/10/30 08:34:30;;;;;;;;;;;11.80;99.90;;;;;;5080954;28;19925;-92
2023/10/30 08:36:55;;;;;;;;;;;11.90;99.90;;;;;;5056005;28;19925;-89
2023/10/30 08:39:21;;;;;;;;;;;11.90;99.90;;;;;;5041947;28;20020;-94
2023/10/30 08:41:47;;;;;;;;;;;12.00;99.90;;;;;;5044727;28;19924;-95
2023/10/30 08:44:13;;;;;;;;;;;12.10;99.90;;;;;;5069819;28;20049;-83
2023/10/30 08:46:38;;;;;;;;;;;12.20;99.90;;;;;;5045460;28;19920;-88
2023/10/30 08:49:04;;;;;;;;;;;12.30;99.90;;;;;;5065565;28;19924;-91
2023/10/30 08:51:30;;;;;;;;;;;12.40;99.90;;;;;;5087252;28;19939;-89
2023/10/30 08:53:56;;;;;;;;;;;12.50;99.90;;;;;;5071445;28;20283;-89
2023/10/30 08:56:22;;;;;;;;;;;12.70;99.90;;;;;;5038468;28;19925;-93
2023/10/30 08:58:48;;;;;;;;;;;12.90;99.90;;;;;;5039580;28;19921;-93
2023/10/30 09:01:14;;;;;;;;;;;12.90;99.90;;;;;;5055210;28;19920;-94
2023/10/30 09:03:42;;;;;;;;;;;13.00;99.90;;;;;;5038172;28;19960;-90
2023/10/30 09:06:08;;;;;;;;;;;12.80;99.90;;;;;;5055004;28;19924;-91
2023/10/30 09:08:34;;;;;;;;;;;12.70;99.90;;;;;;5077999;28;19927;-89
2023/10/30 09:10:59;;;;;;;;;;;13.00;99.90;;;;;;5038190;28;19968;-94
2023/10/30 09:13:25;;;;;;;;;;;13.00;99.90;;;;;;5036732;28;19920;-89
2023/10/30 09:15:51;;;;;;;;;;;13.30;99.90;;;;;;5037815;28;20271;-87
2023/10/30 09:18:17;;;;;;;;;;;;;;;;;;5067159;28;19924;-93
2023/10/30 09:20:42;;;;;;;;;;;13.30;99.90;;;;;;5067660;28;19920;-88
2023/10/30 09:23:08;;;;;;;;;;;13.30;99.90;;;;;;5074830;28;19927;-91
2023/10/30 09:25:34;;;;;;;;;;;13.10;99.90;;;;;;5058357;28;19920;-87
2023/10/30 09:28:00;;;;;;;;;;;13.20;99.90;;;;;;5074516;28;19928;-86
2023/10/30 09:30:30;;;;;;;;;;;12.90;99.90;;;;;;5060794;28;19924;-83
2023/10/30 09:32:59;;;;;;;;;;;13.10;99.90;;;;;;5057519;28;19921;-91
2023/10/30 09:35:30;;;;;;;;;;;13.30;99.90;;;;;;5057600;28;19924;-88
2023/10/30 09:37:56;;;;;;;;;;;13.10;99.90;;;;;;5058579;28;19920;-95
2023/10/30 09:40:26;;;;;;;;;;;13.00;99.90;;;;;;5045697;28;19927;-89
2023/10/30 09:42:52;;;;;;;;;;;12.90;99.90;;;;;;5070563;28;20020;-91
2023/10/30 09:45:22;;;;;;;;;;;13.00;99.90;;;;;;5058033;28;20587;-93
2023/10/30 09:47:57;;;;;;;;;;;13.00;99.90;;;;;;5077943;28;19928;-90
2023/10/30 09:50:23;;;;;;;;;;;12.80;99.90;;;;;;5058010;28;19932;-87
2023/10/30 09:52:53;;;;;;;;;;;12.90;99.90;;;;;;5057314;28;19921;-91
2023/10/30 09:55:19;;;;;;;;;;;12.90;99.90;;;;;;5041174;28;19925;-86
2023/10/30 09:57:49;;;;;;;;;;;13.20;99.90;;;;;;5074130;28;19981;-94
2023/10/30 10:00:15;;;;;;;;;;;13.40;99.90;;;;;;5057239;28;19924;-88
2023/10/30 10:02:41;;;;;;;;;;;13.30;99.90;;;;;;5054965;28;19921;-93
2023/10/30 10:05:07;;;;;;;;;;;13.20;99.90;;;;;;5056676;28;19920;-89
2023/10/30 10:07:34;;;;;;;;;;;13.40;99.90;;;;;;5058246;28;20559;-86
2023/10/30 10:10:03;;;;;;;;;;;13.60;99.90;;;;;;5058011;28;19924;-93
2023/10/30 10:12:29;;;;;;;;;;;;;;;;;;5057512;28;19920;-89
2023/10/30 10:14:55;;;;;;;;;;;13.70;99.90;;;;;;5056691;28;19927;-89
2023/10/30 10:17:21;;;;;;;;;;;13.00;99.90;;;;;;5057922;28;19921;-89
2023/10/30 10:19:47;;;;;;;;;;;;;;;;;;5073519;28;20006;-89
2023/10/30 10:22:13;;;;;;;;;;;;;;;;;;5073697;28;20595;-90
2023/10/30 10:24:39;;;;;;;;;;;;;;;;;;5086990;28;19966;-93
2023/10/30 10:27:06;;;;;;;;;;;;;;;;;;5059927;28;19920;-91
2023/10/30 10:29:33;;;;;;;;;;;;;;;;;;5062111;28;19920;-88
2023/10/30 10:31:59;;;;;;;;;;;;;;;;;;5058782;28;19925;-86
2023/10/30 10:34:29;;;;;;;;;;;13.80;99.90;;;;;;5057832;28;19970;-86
2023/10/30 10:36:58;;;;;;;;;;;14.00;99.90;;;;;;5073561;28;19948;-87
2023/10/30 10:39:25;;;;;;;;;;;14.20;99.90;;;;;;5070579;28;19920;-88
2023/10/30 10:41:52;;;;;;;;;;;14.00;99.90;;;;;;5057885;28;20004;-90
2023/10/30 10:44:19;;;;;;;;;;;13.80;99.90;;;;;;5046904;28;20409;-85
2023/10/30 10:46:45;;;;;;;;;;;13.70;99.90;;;;;;5056795;28;19924;-86
2023/10/30 10:49:11;;;;;;;;;;;14.30;99.90;;;;;;5080984;28;19985;-89
2023/10/30 10:51:40;;;;;;;;;;;14.00;99.90;;;;;;5060154;28;19924;-86
2023/10/30 10:54:21;;;;;;;;;;;14.10;99.90;;;;;;5048065;28;19975;-90
2023/10/30 10:56:49;;;;;;;;;;;13.50;99.90;;;;;;5057173;28;20010;-89
2023/10/30 10:59:15;;;;;;;;;;;13.90;99.90;;;;;;5040727;28;19924;-90
2023/10/30 11:01:42;;;;;;;;;;;14.20;99.90;;;;;;5047442;28;19970;-89
2023/10/30 11:04:11;;;;;;;;;;;14.20;99.90;;;;;;5055024;28;19920;-89
2023/10/30 11:06:38;;;;;;;;;;;14.20;99.90;;;;;;5041042;28;19920;-85
2023/10/30 11:09:05;;;;;;;;;;;;;;;;;;5068179;28;19927;-90
2023/10/30 11:11:51;;;;;;;;;;;14.30;99.90;;;;;;5031840;28;19978;-87
2023/10/30 11:14:24;;;;;;;;;;;14.40;99.90;;;;;;5041085;28;19920;-84
2023/10/30 11:17:00;;;;;;;;;;;14.50;99.90;;;;;;5066843;28;20382;-95
2023/10/30 11:19:28;;;;;;;;;;;14.50;99.90;;;;;;5059097;28;19921;-90
2023/10/30 11:21:54;;;;;;;;;;;14.40;99.90;;;;;;5054212;28;19936;-86
2023/10/30 11:24:40;;;;;;;;;;;14.40;99.90;;;;;;5041779;28;19967;-86
2023/10/30 11:27:27;;;;;;;;;;;14.30;99.90;;;;;;5069466;28;19974;-92
2023/10/30 11:29:54;;;;;;;;;;;14.30;99.90;;;;;;5068516;28;19927;-86
2023/10/30 11:32:20;;;;;;;;;;;14.30;99.90;;;;;;5049964;28;19929;-85
2023/10/30 11:34:46;;;;;;;;;;;14.40;99.90;;;;;;5056157;28;19931;-91
2023/10/30 11:37:13;;;;;;;;;;;14.30;99.90;;;;;;5055161;28;19946;-88
2023/10/30 11:39:41;;;;;;;;;;;14.30;99.90;;;;;;5039481;28;19920;-90
2023/10/30 11:42:30;;;;;;;;;;;14.20;99.90;;;;;;5049539;28;20014;-89
2023/10/30 11:45:14;;;;;;;;;;;14.20;99.90;;;;;;5051185;28;20410;-84
2023/10/30 11:47:41;;;;;;;;;;;14.20;99.90;;;;;;5043419;28;20526;-86
2023/10/30 11:50:08;;;;;;;;;;;14.10;99.90;;;;;;5053549;28;19932;-91
2023/10/30 11:52:35;;;;;;;;;;;14.00;99.90;;;;;;5048058;28;19928;-87
2023/10/30 11:55:05;;;;;;;;;;;13.90;99.90;;;;;;5045909;28;19928;-92
2023/10/30 11:57:31;;;;;;;;;;;13.90;99.90;;;;;;5077567;28;19959;-91
2023/10/30 11:59:56;;;;;;;;;;;13.90;99.90;;;;;;5057942;28;19997;-91
2023/10/30 12:02:22;;;;;;;;;;;13.90;99.90;;;;;;5062087;28;19927;-84
2023/10/30 12:04:48;;;;;;;;;;;13.90;99.90;;;;;;5036587;28;20025;-90
2023/10/30 12:07:14;;;;;;;;;;;13.90;99.90;;;;;;5054892;28;19929;-85
2023/10/30 12:09:39;;;;;;;;;;;13.90;99.90;;;;;;5051951;28;19928;-90
2023/10/30 12:12:05;;;;;;;;;;;14.00;99.90;;;;;;5071210;28;19924;-88
2023/10/30 12:14:31;;;;;;;;;;;14.00;99.90;;;;;;5071849;28;19988;-93
2023/10/30 12:16:57;;;;;;;;;;;14.00;99.90;;;;;;5046279;28;19987;-87
2023/10/30 12:19:23;;;;;;;;;;;13.90;99.90;;;;;;5070184;28;19921;-88
2023/10/30 12:21:49;;;;;;;;;;;13.90;99.90;;;;;;5045442;28;19954;-87
2023/10/30 12:24:16;;;;;;;;;;;13.90;99.90;;;;;;5059815;28;19959;-82
2023/10/30 12:26:41;;;;;;;;;;;13.90;99.90;;;;;;5071947;28;20352;-85
2023/10/30 12:29:07;;;;;;;;;;;13.80;99.90;;;;;;5075416;28;19920;-84
2023/10/30 12:31:35;;;;;;;;;;;13.80;99.90;;;;;;5071546;28;19924;-86
2023/10/30 12:34:18;;;;;;;;;;;13.80;99.90;;;;;;5054565;28;19931;-92
2023/10/30 12:36:43;;;;;;;;;;;13.80;99.90;;;;;;5072110;28;20379;-85
2023/10/30 12:39:13;;;;;;;;;;;13.70;99.90;;;;;;5054413;28;20054;-91
2023/10/30 12:41:39;;;;;;;;;;;13.70;99.90;;;;;;5042895;28;19970;-87
2023/10/30 12:44:04;;;;;;;;;;;13.70;99.90;;;;;;5071530;28;19951;-84
2023/10/30 12:46:30;;;;;;;;;;;13.70;99.90;;;;;;5055404;28;19928;-87
2023/10/30 12:48:56;;;;;;;;;;;13.80;99.90;;;;;;5072760;28;20041;-85
2023/10/30 12:51:21;;;;;;;;;;;13.80;99.90;;;;;;5072659;28;19928;-90
2023/10/30 12:53:47;;;;;;;;;;;13.90;99.90;;;;;;5038669;28;19970;-92
2023/10/30 12:56:13;;;;;;;;;;;13.80;99.90;;;;;;5013520;28;19932;-86
2023/10/30 12:58:38;;;;;;;;;;;13.80;99.90;;;;;;5042853;28;19966;-83
2023/10/30 13:01:04;;;;;;;;;;;13.70;99.90;;;;;;5043343;28;19921;-88
2023/10/30 13:03:29;;;;;;;;;;;13.70;99.90;;;;;;5060067;28;20414;-86
2023/10/30 13:05:55;;;;;;;;;;;13.60;99.90;;;;;;5063927;28;20003;-83
2023/10/30 13:08:21;;;;;;;;;;;13.60;99.90;;;;;;5061544;28;20341;-87
2023/10/30 13:10:47;;;;;;;;;;;13.70;99.90;;;;;;5043893;28;20007;-88
2023/10/30 13:13:17;;;;;;;;;;;13.60;99.90;;;;;;5042392;28;19921;-88
2023/10/30 13:15:43;;;;;;;;;;;13.70;99.90;;;;;;5026762;28;19924;-89
2023/10/30 13:18:08;;;;;;;;;;;13.60;99.90;;;;;;5026185;28;20341;-89
2023/10/30 13:20:34;;;;;;;;;;;13.60;99.90;;;;;;5041222;28;19921;-88
2023/10/30 13:23:00;;;;;;;;;;;13.60;99.90;;;;;;5025562;28;19924;-84
2023/10/30 13:25:26;;;;;;;;;;;13.60;99.90;;;;;;5032479;28;19943;-88
2023/10/30 13:27:52;;;;;;;;;;;13.50;99.90;;;;;;5044440;28;19920;-87
2023/10/30 13:30:18;;;;;;;;;;;13.50;99.90;;;;;;5059927;28;19932;-85
2023/10/30 13:32:43;;;;;;;;;;;13.50;99.90;;;;;;5044997;28;20009;-83
2023/10/30 13:35:09;;;;;;;;;;;13.50;99.90;;;;;;5027214;28;20520;-85
2023/10/30 13:37:35;;;;;;;;;;;13.50;99.90;;;;;;5047515;28;19920;-86
2023/10/30 13:40:01;;;;;;;;;;;13.50;99.90;;;;;;5026238;28;20371;-92
2023/10/30 13:42:26;;;;;;;;;;;13.50;99.90;;;;;;5070286;28;19920;-88
2023/10/30 13:44:52;;;;;;;;;;;13.50;99.90;;;;;;5030893;28;19926;-86
2023/10/30 13:47:20;;;;;;;;;;;13.50;99.90;;;;;;5048079;28;19920;-87
2023/10/30 13:49:46;;;;;;;;;;;13.50;99.90;;;;;;5028103;28;20049;-87
2023/10/30 13:52:13;;;;;;;;;;;13.40;99.90;;;;;;5047066;28;19962;-87
2023/10/30 13:54:38;;;;;;;;;;;13.40;99.90;;;;;;5028993;28;19932;-88
2023/10/30 13:57:04;;;;;;;;;;;13.40;99.90;;;;;;5028222;28;19920;-85
2023/10/30 13:59:30;;;;;;;;;;;13.40;99.90;;;;;;5048553;28;19968;-86
2023/10/30 14:01:56;;;;;;;;;;;13.40;99.90;;;;;;5061681;28;19928;-89
2023/10/30 14:04:21;;;;;;;;;;;13.30;99.90;;;;;;5046361;28;19921;-87
2023/10/30 14:06:47;;;;;;;;;;;13.30;99.90;;;;;;5050068;28;19920;-85
2023/10/30 14:09:13;;;;;;;;;;;13.40;99.90;;;;;;5063448;28;19928;-91
2023/10/30 14:11:39;;;;;;;;;;;13.40;99.90;;;;;;5021444;28;19925;-88
2023/10/30 14:14:04;;;;;;;;;;;13.30;99.90;;;;;;5057227;28;19927;-84
2023/10/30 14:16:30;;;;;;;;;;;13.40;99.90;;;;;;5062231;28;19971;-88
2023/10/30 14:18:56;;;;;;;;;;;13.30;99.90;;;;;;5063043;28;19921;-91
2023/10/30 14:21:26;;;;;;;;;;;13.40;99.90;;;;;;5042271;28;19920;-87
2023/10/30 14:23:52;;;;;;;;;;;13.40;99.90;;;;;;5057016;28;19975;-86
2023/10/30 14:26:17;;;;;;;;;;;13.30;99.90;;;;;;5040531;28;19920;-86
2023/10/30 14:28:43;;;;;;;;;;;13.40;99.90;;;;;;5056326;28;19924;-85
2023/10/30 14:31:09;;;;;;;;;;;13.30;99.90;;;;;;5040938;28;20016;-88
2023/10/30 14:33:34;;;;;;;;;;;13.30;99.90;;;;;;5056757;28;19971;-88
2023/10/30 14:36:00;;;;;;;;;;;13.30;99.90;;;;;;5057315;28;20061;-87
2023/10/30 14:38:26;;;;;;;;;;;13.30;99.90;;;;;;5024458;28;20007;-86
2023/10/30 14:40:51;;;;;;;;;;;13.30;99.90;;;;;;5057505;28;19928;-89
2023/10/30 14:43:17;;;;;;;;;;;13.30;99.90;;;;;;5015527;28;19925;-86
2023/10/30 14:45:43;;;;;;;;;;;13.30;99.90;;;;;;5043993;28;19970;-88